sensor_id;sensor_type;location;lat;lon;timestamp;pressure;altitude;pressure_sealevel;temperature;humidity
57000;BME280;42891;50.006;21.964;2023-04-04T00:00:23;99465.69;;;1.57;65.05
57000;BME280;42891;50.006;21.964;2023-04-04T00:04:23;99472.16;;;1.67;64.22
57000;BME280;42891;50.006;21.964;2023-04-04T00:08:24;99469.84;;;1.61;64.68
57000;BME280;42891;50.006;21.964;2023-04-04T00:12:24;99473.28;;;1.62;64.55
57000;BME280;42891;50.006;21.964;2023-04-04T00:16:25;99461.25;;;1.59;64.83
57000;BME280;42891;50.006;21.964;2023-04-04T00:20:25;99462.94;;;1.60;64.70
57000;BME280;42891;50.006;21.964;2023-04-04T00:24:25;99479.22;;;1.65;64.64
57000;BME280;42891;50.006;21.964;2023-04-04T00:28:27;99484.59;;;1.61;64.64
57000;BME280;42891;50.006;21.964;2023-04-04T00:32:28;99494.72;;;1.48;65.95
57000;BME280;42891;50.006;21.964;2023-04-04T00:36:28;99481.84;;;1.45;65.80
57000;BME280;42891;50.006;21.964;2023-04-04T00:40:28;99486.13;;;1.46;65.80
57000;BME280;42891;50.006;21.964;2023-04-04T00:44:30;99471.56;;;1.42;65.90
57000;BME280;42891;50.006;21.964;2023-04-04T00:48:31;99487.66;;;1.50;65.46
57000;BME280;42891;50.006;21.964;2023-04-04T00:52:32;99476.63;;;1.45;65.17
57000;BME280;42891;50.006;21.964;2023-04-04T00:56:34;99475.72;;;1.46;65.59
57000;BME280;42891;50.006;21.964;2023-04-04T01:00:37;99492.63;;;1.56;65.11
57000;BME280;42891;50.006;21.964;2023-04-04T01:04:37;99487.34;;;1.58;64.84
57000;BME280;42891;50.006;21.964;2023-04-04T01:08:38;99487.63;;;1.51;65.66
57000;BME280;42891;50.006;21.964;2023-04-04T01:12:40;99483.47;;;1.47;65.57
57000;BME280;42891;50.006;21.964;2023-04-04T01:16:41;99482.88;;;1.41;65.71
57000;BME280;42891;50.006;21.964;2023-04-04T01:20:58;99475.84;;;1.43;65.62
57000;BME280;42891;50.006;21.964;2023-04-04T01:25:02;99471.38;;;1.26;65.87
57000;BME280;42891;50.006;21.964;2023-04-04T01:29:03;99475.66;;;1.27;65.90
57000;BME280;42891;50.006;21.964;2023-04-04T01:33:09;99426.09;;;0.89;66.16
57000;BME280;42891;50.006;21.964;2023-04-04T01:37:25;99474.09;;;1.23;66.26
57000;BME280;42891;50.006;21.964;2023-04-04T01:41:29;99455.16;;;1.19;66.14
57000;BME280;42891;50.006;21.964;2023-04-04T01:45:31;99459.09;;;1.09;66.32
57000;BME280;42891;50.006;21.964;2023-04-04T01:49:32;99457.44;;;1.06;66.25
57000;BME280;42891;50.006;21.964;2023-04-04T01:53:32;99447.16;;;0.82;67.15
57000;BME280;42891;50.006;21.964;2023-04-04T01:57:33;99458.03;;;0.92;66.92
57000;BME280;42891;50.006;21.964;2023-04-04T02:01:33;99450.81;;;0.78;67.62
57000;BME280;42891;50.006;21.964;2023-04-04T02:05:34;99457.94;;;0.73;68.14
57000;BME280;42891;50.006;21.964;2023-04-04T02:09:34;99469.06;;;0.77;68.26
57000;BME280;42891;50.006;21.964;2023-04-04T02:13:35;99470.56;;;0.82;68.16
57000;BME280;42891;50.006;21.964;2023-04-04T02:17:40;99472.00;;;0.90;67.44
57000;BME280;42891;50.006;21.964;2023-04-04T02:21:42;99472.13;;;0.87;67.62
57000;BME280;42891;50.006;21.964;2023-04-04T02:25:42;99474.94;;;0.82;67.97
57000;BME280;42891;50.006;21.964;2023-04-04T02:29:42;99430.63;;;0.63;67.52
57000;BME280;42891;50.006;21.964;2023-04-04T02:33:43;99480.19;;;1.01;66.45
57000;BME280;42891;50.006;21.964;2023-04-04T02:37:44;99484.25;;;0.86;68.34
57000;BME280;42891;50.006;21.964;2023-04-04T02:41:46;99468.31;;;0.73;67.07
57000;BME280;42891;50.006;21.964;2023-04-04T02:45:47;99464.00;;;0.74;68.08
57000;BME280;42891;50.006;21.964;2023-04-04T02:49:48;99452.94;;;0.68;67.80
57000;BME280;42891;50.006;21.964;2023-04-04T02:53:48;99459.06;;;0.88;67.44
57000;BME280;42891;50.006;21.964;2023-04-04T02:57:51;99446.38;;;0.80;67.09
57000;BME280;42891;50.006;21.964;2023-04-04T03:01:52;99455.66;;;0.86;67.37
57000;BME280;42891;50.006;21.964;2023-04-04T03:05:52;99446.25;;;0.83;67.12
57000;BME280;42891;50.006;21.964;2023-04-04T03:09:52;99437.88;;;0.77;67.10
57000;BME280;42891;50.006;21.964;2023-04-04T03:13:53;99435.50;;;0.71;67.71
57000;BME280;42891;50.006;21.964;2023-04-04T03:17:55;99435.19;;;0.78;67.25
57000;BME280;42891;50.006;21.964;2023-04-04T03:21:55;99422.44;;;0.72;66.92
57000;BME280;42891;50.006;21.964;2023-04-04T03:25:56;99425.91;;;0.73;67.61
57000;BME280;42891;50.006;21.964;2023-04-04T03:29:57;99426.59;;;0.76;66.96
57000;BME280;42891;50.006;21.964;2023-04-04T03:33:58;99423.25;;;0.74;67.11
57000;BME280;42891;50.006;21.964;2023-04-04T03:38:00;99417.66;;;0.83;66.96
57000;BME280;42891;50.006;21.964;2023-04-04T03:42:02;99369.00;;;0.44;67.14
57000;BME280;42891;50.006;21.964;2023-04-04T03:46:04;99402.47;;;0.52;68.42
57000;BME280;42891;50.006;21.964;2023-04-04T03:50:05;99399.94;;;0.50;68.54
57000;BME280;42891;50.006;21.964;2023-04-04T03:54:05;99404.44;;;0.67;67.41
57000;BME280;42891;50.006;21.964;2023-04-04T03:58:06;99412.41;;;0.42;68.36
57000;BME280;42891;50.006;21.964;2023-04-04T04:02:07;99416.03;;;0.38;69.27
57000;BME280;42891;50.006;21.964;2023-04-04T04:06:07;99426.84;;;0.49;69.44
57000;BME280;42891;50.006;21.964;2023-04-04T04:10:08;99412.06;;;0.50;68.55
57000;BME280;42891;50.006;21.964;2023-04-04T04:14:08;99399.94;;;0.50;68.87
57000;BME280;42891;50.006;21.964;2023-04-04T04:18:08;99422.72;;;0.66;68.68
57000;BME280;42891;50.006;21.964;2023-04-04T04:22:09;99425.19;;;0.69;68.08
57000;BME280;42891;50.006;21.964;2023-04-04T04:26:09;99414.66;;;0.72;68.31
57000;BME280;42891;50.006;21.964;2023-04-04T04:30:10;99415.03;;;0.63;68.48
57000;BME280;42891;50.006;21.964;2023-04-04T04:34:10;99427.78;;;0.69;68.74
57000;BME280;42891;50.006;21.964;2023-04-04T04:38:10;99422.31;;;0.55;69.30
57000;BME280;42891;50.006;21.964;2023-04-04T04:42:11;99432.38;;;0.62;69.88
57000;BME280;42891;50.006;21.964;2023-04-04T04:46:11;99445.44;;;0.61;69.23
57000;BME280;42891;50.006;21.964;2023-04-04T04:50:12;99448.09;;;0.59;69.67
57000;BME280;42891;50.006;21.964;2023-04-04T04:54:12;99458.97;;;0.69;70.30
57000;BME280;42891;50.006;21.964;2023-04-04T04:58:13;99459.81;;;0.70;69.01
57000;BME280;42891;50.006;21.964;2023-04-04T05:02:16;99445.00;;;0.72;69.26
57000;BME280;42891;50.006;21.964;2023-04-04T05:06:16;99479.81;;;0.67;68.79
57000;BME280;42891;50.006;21.964;2023-04-04T05:10:16;99477.53;;;0.60;69.84
57000;BME280;42891;50.006;21.964;2023-04-04T05:14:17;99477.22;;;0.67;70.32
57000;BME280;42891;50.006;21.964;2023-04-04T05:18:17;99487.13;;;0.80;69.61
57000;BME280;42891;50.006;21.964;2023-04-04T05:22:18;99480.84;;;0.63;70.24
57000;BME280;42891;50.006;21.964;2023-04-04T05:26:18;99462.19;;;0.54;69.32
57000;BME280;42891;50.006;21.964;2023-04-04T05:30:19;99460.53;;;0.51;70.03
57000;BME280;42891;50.006;21.964;2023-04-04T05:34:19;99468.75;;;0.62;71.08
57000;BME280;42891;50.006;21.964;2023-04-04T05:38:19;99458.81;;;0.52;71.01
57000;BME280;42891;50.006;21.964;2023-04-04T05:42:20;99459.16;;;0.64;69.26
57000;BME280;42891;50.006;21.964;2023-04-04T05:46:21;99464.72;;;0.55;70.59
57000;BME280;42891;50.006;21.964;2023-04-04T05:50:21;99487.13;;;0.80;70.28
57000;BME280;42891;50.006;21.964;2023-04-04T05:54:22;99481.09;;;0.79;69.46
57000;BME280;42891;50.006;21.964;2023-04-04T05:58:22;99479.44;;;0.99;69.04
57000;BME280;42891;50.006;21.964;2023-04-04T06:02:23;99486.06;;;1.06;68.34
57000;BME280;42891;50.006;21.964;2023-04-04T06:06:23;99472.47;;;0.99;68.93
57000;BME280;42891;50.006;21.964;2023-04-04T06:10:23;99470.22;;;0.90;66.85
57000;BME280;42891;50.006;21.964;2023-04-04T06:14:24;99458.94;;;0.91;68.50
57000;BME280;42891;50.006;21.964;2023-04-04T06:18:24;99464.13;;;0.91;67.82
57000;BME280;42891;50.006;21.964;2023-04-04T06:22:25;99444.91;;;0.95;69.07
57000;BME280;42891;50.006;21.964;2023-04-04T06:26:25;99471.66;;;1.19;68.26
57000;BME280;42891;50.006;21.964;2023-04-04T06:30:26;99461.34;;;1.16;65.51
57000;BME280;42891;50.006;21.964;2023-04-04T06:34:26;99478.97;;;1.30;66.79
57000;BME280;42891;50.006;21.964;2023-04-04T06:38:27;99464.97;;;1.33;68.13
57000;BME280;42891;50.006;21.964;2023-04-04T06:42:28;99478.06;;;1.52;66.61
57000;BME280;42891;50.006;21.964;2023-04-04T06:46:29;99478.81;;;1.54;66.50
57000;BME280;42891;50.006;21.964;2023-04-04T06:50:30;99469.00;;;1.61;65.83
57000;BME280;42891;50.006;21.964;2023-04-04T06:54:33;99477.31;;;1.69;67.10
57000;BME280;42891;50.006;21.964;2023-04-04T06:58:34;99483.31;;;1.71;66.83
57000;BME280;42891;50.006;21.964;2023-04-04T07:02:38;99486.53;;;1.76;66.21
57000;BME280;42891;50.006;21.964;2023-04-04T07:06:38;99485.53;;;1.79;65.66
57000;BME280;42891;50.006;21.964;2023-04-04T07:10:38;99492.81;;;1.91;65.17
57000;BME280;42891;50.006;21.964;2023-04-04T07:14:39;99473.09;;;1.85;64.39
57000;BME280;42891;50.006;21.964;2023-04-04T07:18:39;99482.31;;;1.93;63.62
57000;BME280;42891;50.006;21.964;2023-04-04T07:22:40;99485.44;;;2.01;63.02
57000;BME280;42891;50.006;21.964;2023-04-04T07:26:41;99486.41;;;1.98;64.83
57000;BME280;42891;50.006;21.964;2023-04-04T07:30:41;99465.81;;;2.13;65.65
57000;BME280;42891;50.006;21.964;2023-04-04T07:34:42;99479.94;;;2.26;64.26
57000;BME280;42891;50.006;21.964;2023-04-04T07:38:43;99476.16;;;2.33;63.49
57000;BME280;42891;50.006;21.964;2023-04-04T07:42:47;99464.94;;;2.31;61.98
57000;BME280;42891;50.006;21.964;2023-04-04T07:46:50;99478.03;;;2.49;63.51
57000;BME280;42891;50.006;21.964;2023-04-04T07:50:51;99480.81;;;2.63;62.78
57000;BME280;42891;50.006;21.964;2023-04-04T07:54:52;99473.28;;;2.57;59.76
57000;BME280;42891;50.006;21.964;2023-04-04T07:58:53;99457.25;;;2.47;59.59
57000;BME280;42891;50.006;21.964;2023-04-04T08:02:54;99459.53;;;2.53;59.25
57000;BME280;42891;50.006;21.964;2023-04-04T08:06:55;99439.16;;;2.62;57.99
57000;BME280;42891;50.006;21.964;2023-04-04T08:10:55;99437.25;;;2.65;55.28
57000;BME280;42891;50.006;21.964;2023-04-04T08:14:56;99430.47;;;2.44;54.12
57000;BME280;42891;50.006;21.964;2023-04-04T08:18:56;99431.25;;;2.63;55.74
57000;BME280;42891;50.006;21.964;2023-04-04T08:22:58;99441.25;;;2.72;54.65
57000;BME280;42891;50.006;21.964;2023-04-04T08:26:58;99435.34;;;2.51;49.64
57000;BME280;42891;50.006;21.964;2023-04-04T08:30:58;99429.53;;;2.64;50.47
57000;BME280;42891;50.006;21.964;2023-04-04T08:34:59;99423.09;;;2.71;53.72
57000;BME280;42891;50.006;21.964;2023-04-04T08:38:59;99406.50;;;2.72;53.12
57000;BME280;42891;50.006;21.964;2023-04-04T08:43:00;99428.53;;;2.84;53.11
57000;BME280;42891;50.006;21.964;2023-04-04T08:47:04;99429.16;;;2.89;54.69
57000;BME280;42891;50.006;21.964;2023-04-04T08:51:10;99427.44;;;2.88;54.64
57000;BME280;42891;50.006;21.964;2023-04-04T08:55:11;99418.00;;;2.85;50.29
57000;BME280;42891;50.006;21.964;2023-04-04T08:59:12;99422.97;;;2.55;48.65
57000;BME280;42891;50.006;21.964;2023-04-04T09:03:19;99433.09;;;2.44;48.67
57000;BME280;42891;50.006;21.964;2023-04-04T09:07:21;99416.41;;;2.29;49.30
57000;BME280;42891;50.006;21.964;2023-04-04T09:11:23;99437.09;;;2.32;50.56
57000;BME280;42891;50.006;21.964;2023-04-04T09:15:26;99434.88;;;2.24;50.85
57000;BME280;42891;50.006;21.964;2023-04-04T09:19:26;99409.47;;;2.29;49.33
57000;BME280;42891;50.006;21.964;2023-04-04T09:23:27;99423.06;;;2.53;48.93
57000;BME280;42891;50.006;21.964;2023-04-04T09:27:27;99425.22;;;2.80;50.27
57000;BME280;42891;50.006;21.964;2023-04-04T09:31:28;99413.19;;;2.78;51.43
57000;BME280;42891;50.006;21.964;2023-04-04T09:35:31;99440.50;;;3.05;52.07
57000;BME280;42891;50.006;21.964;2023-04-04T09:39:32;99420.16;;;2.77;49.05
57000;BME280;42891;50.006;21.964;2023-04-04T09:43:33;99419.31;;;2.94;49.91
57000;BME280;42891;50.006;21.964;2023-04-04T09:47:38;99441.25;;;3.25;50.04
57000;BME280;42891;50.006;21.964;2023-04-04T09:51:40;99439.72;;;3.21;50.50
57000;BME280;42891;50.006;21.964;2023-04-04T09:55:41;99430.94;;;3.22;50.54
57000;BME280;42891;50.006;21.964;2023-04-04T09:59:43;99425.88;;;3.36;49.05
57000;BME280;42891;50.006;21.964;2023-04-04T10:03:53;99428.72;;;3.65;53.08
57000;BME280;42891;50.006;21.964;2023-04-04T10:07:53;99406.03;;;3.50;52.40
57000;BME280;42891;50.006;21.964;2023-04-04T10:12:07;99429.41;;;3.69;50.06
57000;BME280;42891;50.006;21.964;2023-04-04T10:16:09;99432.25;;;3.64;48.66
57000;BME280;42891;50.006;21.964;2023-04-04T10:20:10;99424.44;;;3.64;50.02
57000;BME280;42891;50.006;21.964;2023-04-04T10:24:10;99418.56;;;3.77;49.41
57000;BME280;42891;50.006;21.964;2023-04-04T12:36:13;99366.69;;;4.63;44.61
57000;BME280;42891;50.006;21.964;2023-04-04T12:40:14;99367.25;;;4.99;48.70
57000;BME280;42891;50.006;21.964;2023-04-04T12:44:25;99373.91;;;5.19;47.24
57000;BME280;42891;50.006;21.964;2023-04-04T12:48:29;99365.19;;;5.04;45.38
57000;BME280;42891;50.006;21.964;2023-04-04T12:52:30;99340.03;;;4.87;46.03
57000;BME280;42891;50.006;21.964;2023-04-04T12:56:31;99351.53;;;4.54;45.69
57000;BME280;42891;50.006;21.964;2023-04-04T13:00:32;99360.84;;;4.43;46.41
57000;BME280;42891;50.006;21.964;2023-04-04T13:04:32;99354.38;;;4.35;47.03
57000;BME280;42891;50.006;21.964;2023-04-04T13:08:33;99352.50;;;4.37;49.31
57000;BME280;42891;50.006;21.964;2023-04-04T13:12:57;99334.19;;;4.53;48.12
57000;BME280;42891;50.006;21.964;2023-04-04T13:17:04;99321.84;;;4.55;47.37
57000;BME280;42891;50.006;21.964;2023-04-04T13:21:07;99322.38;;;5.05;48.31
57000;BME280;42891;50.006;21.964;2023-04-04T13:25:08;99321.03;;;5.70;47.33
57000;BME280;42891;50.006;21.964;2023-04-04T13:29:09;99302.06;;;5.93;43.66
57000;BME280;42891;50.006;21.964;2023-04-04T13:33:10;99315.72;;;6.26;43.17
57000;BME280;42891;50.006;21.964;2023-04-04T13:37:11;99330.94;;;5.64;43.70
57000;BME280;42891;50.006;21.964;2023-04-04T13:41:11;99327.84;;;5.58;43.99
57000;BME280;42891;50.006;21.964;2023-04-04T13:45:12;99342.28;;;5.22;46.34
57000;BME280;42891;50.006;21.964;2023-04-04T13:49:13;99341.47;;;5.07;47.71
57000;BME280;42891;50.006;21.964;2023-04-04T13:53:13;99337.31;;;5.60;47.01
57000;BME280;42891;50.006;21.964;2023-04-04T13:57:14;99321.94;;;6.10;45.27
57000;BME280;42891;50.006;21.964;2023-04-04T14:01:14;99321.97;;;6.51;43.79
57000;BME280;42891;50.006;21.964;2023-04-04T14:05:15;99317.06;;;7.10;42.94
57000;BME280;42891;50.006;21.964;2023-04-04T14:09:15;99303.63;;;6.76;43.00
57000;BME280;42891;50.006;21.964;2023-04-04T14:13:15;99308.72;;;6.39;42.74
57000;BME280;42891;50.006;21.964;2023-04-04T14:17:16;99317.66;;;5.95;43.87
57000;BME280;42891;50.006;21.964;2023-04-04T14:21:17;99321.13;;;5.54;44.17
57000;BME280;42891;50.006;21.964;2023-04-04T14:25:17;99316.88;;;5.24;45.22
57000;BME280;42891;50.006;21.964;2023-04-04T14:29:17;99313.41;;;4.94;45.43
57000;BME280;42891;50.006;21.964;2023-04-04T14:33:18;99320.78;;;5.02;46.69
57000;BME280;42891;50.006;21.964;2023-04-04T14:37:18;99309.47;;;5.02;47.51
57000;BME280;42891;50.006;21.964;2023-04-04T14:41:19;99311.34;;;5.14;47.03
57000;BME280;42891;50.006;21.964;2023-04-04T14:45:20;99328.38;;;5.21;47.39
57000;BME280;42891;50.006;21.964;2023-04-04T14:49:21;99332.09;;;5.17;46.81
57000;BME280;42891;50.006;21.964;2023-04-04T14:53:21;99324.63;;;4.82;47.58
57000;BME280;42891;50.006;21.964;2023-04-04T14:57:22;99321.59;;;4.59;47.51
57000;BME280;42891;50.006;21.964;2023-04-04T15:01:23;99330.47;;;4.41;47.61
57000;BME280;42891;50.006;21.964;2023-04-04T15:05:24;99336.91;;;4.35;46.85
57000;BME280;42891;50.006;21.964;2023-04-04T15:09:25;99321.59;;;4.29;47.56
57000;BME280;42891;50.006;21.964;2023-04-04T15:13:26;99336.00;;;4.36;48.46
57000;BME280;42891;50.006;21.964;2023-04-04T15:17:26;99331.50;;;4.38;48.23
57000;BME280;42891;50.006;21.964;2023-04-04T15:21:27;99341.25;;;4.51;48.39
57000;BME280;42891;50.006;21.964;2023-04-04T15:25:27;99338.34;;;4.41;48.02
57000;BME280;42891;50.006;21.964;2023-04-04T15:29:28;99333.88;;;4.43;48.25
57000;BME280;42891;50.006;21.964;2023-04-04T15:33:29;99350.06;;;4.34;49.62
57000;BME280;42891;50.006;21.964;2023-04-04T15:37:29;99349.50;;;4.29;49.48
57000;BME280;42891;50.006;21.964;2023-04-04T15:41:30;99343.19;;;4.17;51.45
57000;BME280;42891;50.006;21.964;2023-04-04T15:45:30;99351.91;;;4.01;52.23
57000;BME280;42891;50.006;21.964;2023-04-04T15:49:31;99346.81;;;4.14;50.70
57000;BME280;42891;50.006;21.964;2023-04-04T15:53:32;99354.97;;;4.24;51.41
57000;BME280;42891;50.006;21.964;2023-04-04T15:57:32;99356.91;;;4.20;51.66
57000;BME280;42891;50.006;21.964;2023-04-04T16:01:33;99356.94;;;4.04;51.15
57000;BME280;42891;50.006;21.964;2023-04-04T16:05:33;99361.59;;;4.15;50.41
57000;BME280;42891;50.006;21.964;2023-04-04T16:09:33;99357.78;;;4.05;50.90
57000;BME280;42891;50.006;21.964;2023-04-04T16:13:35;99361.50;;;4.01;51.52
57000;BME280;42891;50.006;21.964;2023-04-04T16:17:35;99364.19;;;3.99;50.97
57000;BME280;42891;50.006;21.964;2023-04-04T16:21:36;99364.88;;;4.03;51.02
57000;BME280;42891;50.006;21.964;2023-04-04T16:25:37;99374.31;;;3.89;51.87
57000;BME280;42891;50.006;21.964;2023-04-04T16:29:37;99361.09;;;3.77;52.17
57000;BME280;42891;50.006;21.964;2023-04-04T16:33:37;99356.44;;;3.66;51.80
57000;BME280;42891;50.006;21.964;2023-04-04T16:37:38;99370.09;;;3.71;52.51
57000;BME280;42891;50.006;21.964;2023-04-04T16:41:38;99387.13;;;3.78;51.84
57000;BME280;42891;50.006;21.964;2023-04-04T16:45:40;99391.75;;;3.73;52.15
57000;BME280;42891;50.006;21.964;2023-04-04T16:49:40;99396.38;;;3.68;53.44
57000;BME280;42891;50.006;21.964;2023-04-04T16:53:40;99385.78;;;3.71;53.99
57000;BME280;42891;50.006;21.964;2023-04-04T16:57:41;99379.44;;;3.26;56.20
57000;BME280;42891;50.006;21.964;2023-04-04T17:01:41;99412.09;;;2.99;59.07
57000;BME280;42891;50.006;21.964;2023-04-04T17:05:42;99408.03;;;2.76;61.42
57000;BME280;42891;50.006;21.964;2023-04-04T17:09:42;99410.97;;;2.87;60.63
57000;BME280;42891;50.006;21.964;2023-04-04T17:13:42;99407.75;;;2.82;59.46
57000;BME280;42891;50.006;21.964;2023-04-04T17:17:43;99368.22;;;2.55;60.01
57000;BME280;42891;50.006;21.964;2023-04-04T17:21:43;99403.91;;;3.07;59.31
57000;BME280;42891;50.006;21.964;2023-04-04T17:25:44;99417.53;;;3.12;59.46
57000;BME280;42891;50.006;21.964;2023-04-04T17:29:44;99412.09;;;3.17;57.99
57000;BME280;42891;50.006;21.964;2023-04-04T17:33:44;99413.72;;;3.19;58.00
57000;BME280;42891;50.006;21.964;2023-04-04T17:37:45;99429.28;;;3.03;57.70
57000;BME280;42891;50.006;21.964;2023-04-04T17:41:45;99442.66;;;2.97;59.66
57000;BME280;42891;50.006;21.964;2023-04-04T17:45:48;99439.78;;;2.84;62.00
57000;BME280;42891;50.006;21.964;2023-04-04T17:49:49;99439.47;;;2.73;62.04
57000;BME280;42891;50.006;21.964;2023-04-04T17:53:50;99445.63;;;2.89;60.76
57000;BME280;42891;50.006;21.964;2023-04-04T17:57:51;99453.28;;;2.93;60.06
57000;BME280;42891;50.006;21.964;2023-04-04T18:01:51;99448.75;;;3.14;59.70
57000;BME280;42891;50.006;21.964;2023-04-04T18:05:52;99435.78;;;3.12;59.17
57000;BME280;42891;50.006;21.964;2023-04-04T18:09:52;99440.38;;;3.24;59.22
57000;BME280;42891;50.006;21.964;2023-04-04T18:13:53;99449.63;;;3.14;58.93
57000;BME280;42891;50.006;21.964;2023-04-04T18:17:53;99421.53;;;2.84;59.42
57000;BME280;42891;50.006;21.964;2023-04-04T18:21:53;99448.25;;;2.89;58.17
57000;BME280;42891;50.006;21.964;2023-04-04T18:25:59;99446.47;;;2.90;57.87
57000;BME280;42891;50.006;21.964;2023-04-04T18:29:59;99447.88;;;2.97;57.97
57000;BME280;42891;50.006;21.964;2023-04-04T18:34:00;99442.41;;;2.84;57.94
57000;BME280;42891;50.006;21.964;2023-04-04T18:38:00;99438.34;;;2.79;58.15
57000;BME280;42891;50.006;21.964;2023-04-04T18:42:01;99429.38;;;2.67;58.98
57000;BME280;42891;50.006;21.964;2023-04-04T18:46:02;99421.44;;;2.51;59.10
57000;BME280;42891;50.006;21.964;2023-04-04T18:50:03;99430.50;;;2.61;60.62
57000;BME280;42891;50.006;21.964;2023-04-04T18:54:03;99427.22;;;2.38;61.42
57000;BME280;42891;50.006;21.964;2023-04-04T18:58:04;99446.13;;;2.25;63.61
57000;BME280;42891;50.006;21.964;2023-04-04T19:02:05;99448.31;;;2.34;64.99
57000;BME280;42891;50.006;21.964;2023-04-04T19:06:06;99438.31;;;2.25;66.28
57000;BME280;42891;50.006;21.964;2023-04-04T19:10:09;99429.25;;;2.33;64.92
57000;BME280;42891;50.006;21.964;2023-04-04T19:14:11;99433.41;;;2.55;63.68
57000;BME280;42891;50.006;21.964;2023-04-04T19:18:12;99436.03;;;2.72;62.57
57000;BME280;42891;50.006;21.964;2023-04-04T19:22:12;99439.19;;;2.79;61.62
57000;BME280;42891;50.006;21.964;2023-04-04T19:26:12;99441.03;;;2.95;61.37
57000;BME280;42891;50.006;21.964;2023-04-04T19:34:42;99436.34;;;2.84;60.69
57000;BME280;42891;50.006;21.964;2023-04-04T19:38:42;99444.09;;;3.03;60.88
57000;BME280;42891;50.006;21.964;2023-04-04T19:42:48;99441.63;;;3.00;60.48
57000;BME280;42891;50.006;21.964;2023-04-04T19:46:48;99451.78;;;3.06;60.07
57000;BME280;42891;50.006;21.964;2023-04-04T19:50:49;99438.66;;;3.07;59.82
57000;BME280;42891;50.006;21.964;2023-04-04T19:54:50;99426.13;;;2.97;60.05
57000;BME280;42891;50.006;21.964;2023-04-04T19:58:56;99446.53;;;2.88;60.52
57000;BME280;42891;50.006;21.964;2023-04-04T20:03:24;99418.78;;;2.87;59.69
57000;BME280;42891;50.006;21.964;2023-04-04T20:07:22;99441.25;;;2.90;59.33
57000;BME280;42891;50.006;21.964;2023-04-04T20:11:34;99446.78;;;2.84;59.57
57000;BME280;42891;50.006;21.964;2023-04-04T20:19:41;99424.06;;;2.68;59.50
57000;BME280;42891;50.006;21.964;2023-04-04T20:23:44;99451.22;;;2.82;59.68
57000;BME280;42891;50.006;21.964;2023-04-04T20:27:45;99443.47;;;2.80;59.11
57000;BME280;42891;50.006;21.964;2023-04-04T20:32:07;99415.03;;;2.76;59.06
57000;BME280;42891;50.006;21.964;2023-04-04T20:36:30;99437.78;;;2.72;58.80
57000;BME280;42891;50.006;21.964;2023-04-04T20:40:37;99438.59;;;2.92;59.07
57000;BME280;42891;50.006;21.964;2023-04-04T20:44:38;99413.78;;;2.83;58.86
57000;BME280;42891;50.006;21.964;2023-04-04T20:48:39;99441.66;;;2.82;58.77
57000;BME280;42891;50.006;21.964;2023-04-04T20:52:40;99428.59;;;2.65;58.98
57000;BME280;42891;50.006;21.964;2023-04-04T21:00:41;99433.56;;;2.52;59.66
57000;BME280;42891;50.006;21.964;2023-04-04T21:04:43;99431.06;;;2.31;59.21
57000;BME280;42891;50.006;21.964;2023-04-04T21:08:49;99427.63;;;2.31;58.89
57000;BME280;42891;50.006;21.964;2023-04-04T21:12:50;99437.09;;;2.32;59.59
57000;BME280;42891;50.006;21.964;2023-04-04T21:16:51;99426.44;;;2.19;59.05
57000;BME280;42891;50.006;21.964;2023-04-04T21:21:14;99429.81;;;2.21;59.92
57000;BME280;42891;50.006;21.964;2023-04-04T21:25:43;99427.69;;;2.29;59.88
57000;BME280;42891;50.006;21.964;2023-04-04T21:29:44;99418.44;;;2.22;59.59
57000;BME280;42891;50.006;21.964;2023-04-04T21:33:47;99427.97;;;2.23;59.70
57000;BME280;42891;50.006;21.964;2023-04-04T21:37:48;99425.78;;;2.33;60.16
57000;BME280;42891;50.006;21.964;2023-04-04T21:41:59;99429.75;;;2.22;60.10
57000;BME280;42891;50.006;21.964;2023-04-04T21:46:03;99430.78;;;2.37;59.81
57000;BME280;42891;50.006;21.964;2023-04-04T21:50:03;99431.84;;;2.33;59.88
57000;BME280;42891;50.006;21.964;2023-04-04T21:54:05;99420.63;;;2.31;59.64
57000;BME280;42891;50.006;21.964;2023-04-04T21:58:06;99429.84;;;2.38;60.32
57000;BME280;42891;50.006;21.964;2023-04-04T22:02:06;99427.13;;;2.22;60.42
57000;BME280;42891;50.006;21.964;2023-04-04T22:06:06;99416.78;;;2.21;60.06
57000;BME280;42891;50.006;21.964;2023-04-04T22:10:07;99405.91;;;1.94;60.36
57000;BME280;42891;50.006;21.964;2023-04-04T22:14:08;99428.84;;;1.85;60.91
57000;BME280;42891;50.006;21.964;2023-04-04T22:18:09;99424.13;;;1.94;60.11
57000;BME280;42891;50.006;21.964;2023-04-04T22:22:13;99425.91;;;1.93;60.04
57000;BME280;42891;50.006;21.964;2023-04-04T22:26:14;99424.06;;;1.95;60.23
57000;BME280;42891;50.006;21.964;2023-04-04T22:30:16;99426.72;;;1.75;60.43
57000;BME280;42891;50.006;21.964;2023-04-04T22:34:17;99424.13;;;1.75;60.21
57000;BME280;42891;50.006;21.964;2023-04-04T22:38:17;99424.91;;;1.77;60.40
57000;BME280;42891;50.006;21.964;2023-04-04T22:42:18;99432.28;;;1.67;61.29
57000;BME280;42891;50.006;21.964;2023-04-04T22:46:18;99433.84;;;1.71;60.55
57000;BME280;42891;50.006;21.964;2023-04-04T22:50:20;99434.66;;;1.72;61.49
57000;BME280;42891;50.006;21.964;2023-04-04T22:54:24;99430.47;;;1.88;60.69
57000;BME280;42891;50.006;21.964;2023-04-04T22:58:25;99429.75;;;1.84;61.10
57000;BME280;42891;50.006;21.964;2023-04-04T23:02:25;99415.41;;;1.76;61.11
57000;BME280;42891;50.006;21.964;2023-04-04T23:06:26;99430.94;;;1.77;61.12
57000;BME280;42891;50.006;21.964;2023-04-04T23:10:26;99406.88;;;1.53;61.32
57000;BME280;42891;50.006;21.964;2023-04-04T23:14:26;99395.09;;;1.44;61.40
57000;BME280;42891;50.006;21.964;2023-04-04T23:18:29;99408.25;;;1.41;61.92
57000;BME280;42891;50.006;21.964;2023-04-04T23:22:30;99402.28;;;1.39;61.84
57000;BME280;42891;50.006;21.964;2023-04-04T23:26:30;99408.06;;;1.46;61.84
57000;BME280;42891;50.006;21.964;2023-04-04T23:30:31;99401.31;;;1.61;60.97
57000;BME280;42891;50.006;21.964;2023-04-04T23:34:31;99391.44;;;1.48;61.65
57000;BME280;42891;50.006;21.964;2023-04-04T23:38:32;99395.00;;;1.47;61.35